Uraga Maru — JD2163 — position and weather

sailwx.info

Track history (hours):
 
Tides and Currents Weather Stations Pressure Air Temp Water Temp Dewpoint Dewpoint Depression Visibility Wind Speed Wind Dir Waves Ship Positions

Uraga Maru

Last reported at 2014-Oct-21 06:24 UTC. Time now 2014-Oct-21 15:21 UTC.
Position N 35°17' E 139°41'.

Length 40 m; draft 2.8 m.

Type: Tug. MMSI: 431101119.

Date/timePositionNaut miles runAvg speedWind from/ knotsBaromVisibWave heightAir tempDewpointWater temp
2014-Oct-21 06:24N 35°17' E 139°41'2 0.9
2014-Oct-21 04:33N 35°18' E 139°42'3 2.7
2014-Oct-21 03:30N 35°16' E 139°45'9 9.2
2014-Oct-21 02:33N 35°25' E 139°44'1110.2
2014-Oct-21 01:26N 35°30' E 139°57'1 1.1
2014-Oct-21 00:29N 35°29' E 139°58'9 9.2
2014-Oct-20 23:32N 35°24' E 139°49'10 9.8
2014-Oct-20 22:33N 35°17' E 139°41'0 0.1
2014-Oct-20 21:33N 35°17' E 139°41'0 0.0
2014-Oct-20 20:33N 35°17' E 139°41'0 0.0
2014-Oct-20 19:33N 35°17' E 139°41'0 0.0
2014-Oct-20 18:33N 35°17' E 139°41'0 0.0
2014-Oct-20 17:33N 35°17' E 139°41'0 0.0
2014-Oct-20 16:33N 35°17' E 139°41'0 0.0
2014-Oct-20 15:33N 35°17' E 139°41'0 0.0
2014-Oct-20 14:33N 35°17' E 139°41'0 0.0
2014-Oct-20 13:33N 35°17' E 139°41'0 0.0
2014-Oct-20 12:33N 35°17' E 139°41'0 0.0
2014-Oct-20 11:33N 35°17' E 139°41'0 0.0
2014-Oct-20 10:33N 35°17' E 139°41'0 0.0
2014-Oct-20 09:33N 35°17' E 139°41'0 0.0
2014-Oct-20 08:33N 35°17' E 139°41'0 0.0
2014-Oct-20 07:33N 35°17' E 139°41'3 2.8
2014-Oct-20 06:20N 35°17' E 139°45'911.4
2014-Oct-20 05:33N 35°26' E 139°46'2 0.4
2014-Oct-20 00:22N 35°26' E 139°48'911.1
2014-Oct-19 23:33N 35°17' E 139°45'2 1.4
2014-Oct-19 22:05N 35°15' E 139°45'4 8.1
2014-Oct-19 21:32N 35°17' E 139°41'0 0.0
2014-Oct-19 20:33N 35°17' E 139°41'0 0.0
2014-Oct-19 19:33N 35°17' E 139°41'0 0.0
2014-Oct-19 18:34N 35°17' E 139°41'0 0.0
2014-Oct-19 17:33N 35°17' E 139°41'0 0.0
2014-Oct-19 16:34N 35°17' E 139°41'0 0.0
2014-Oct-19 15:33N 35°17' E 139°41'0 0.0
2014-Oct-19 14:33N 35°17' E 139°41'0 0.0
2014-Oct-19 13:31N 35°17' E 139°41'0 0.0
2014-Oct-19 12:33N 35°17' E 139°41'0 0.0
2014-Oct-19 11:33N 35°17' E 139°41'0 0.0
2014-Oct-19 10:29N 35°17' E 139°41'0 0.0
2014-Oct-19 09:34N 35°17' E 139°41'0 0.0
2014-Oct-19 08:33N 35°17' E 139°41'0 0.0
2014-Oct-19 07:33N 35°17' E 139°41'0 0.0
2014-Oct-19 06:31N 35°17' E 139°41'0 0.0
2014-Oct-19 05:30N 35°17' E 139°41'0 0.0
2014-Oct-19 04:27N 35°17' E 139°41'0 0.0
2014-Oct-19 03:32N 35°17' E 139°41'0 0.0
2014-Oct-19 02:33N 35°17' E 139°41'0 0.0
2014-Oct-19 01:33N 35°17' E 139°41'0 0.0
2014-Oct-19 00:33N 35°17' E 139°41'1 1.0
2014-Oct-18 23:34N 35°18' E 139°42'4 3.1
2014-Oct-18 22:07N 35°13' E 139°43'3 4.5
2014-Oct-18 21:33N 35°12' E 139°46'1212.2
2014-Oct-18 20:34N 35°24' E 139°43'2 1.5
2014-Oct-18 19:31N 35°24' E 139°45'0 0.0
2014-Oct-18 18:33N 35°24' E 139°45'0 0.0
2014-Oct-18 17:33N 35°24' E 139°45'0 0.0
2014-Oct-18 16:33N 35°24' E 139°45'0 0.0
2014-Oct-18 15:33N 35°24' E 139°45'0 0.0
2014-Oct-18 14:26N 35°24' E 139°45'4 4.1
2014-Oct-18 13:33N 35°21' E 139°45'10 9.0
2014-Oct-18 12:29N 35°11' E 139°47'4 4.1
2014-Oct-18 11:33N 35°13' E 139°43'0 0.1
2014-Oct-18 10:04N 35°13' E 139°43'3 4.1
2014-Oct-18 09:22N 35°14' E 139°46'1012.2
2014-Oct-18 08:33N 35°23' E 139°41'1 0.6
2014-Oct-18 07:33N 35°23' E 139°40'8 7.4
2014-Oct-18 06:27N 35°16' E 139°45'3 3.5
2014-Oct-18 05:30N 35°19' E 139°43'5 5.4
2014-Oct-18 04:33N 35°23' E 139°40'6 5.9
2014-Oct-18 03:32N 35°17' E 139°41'0 0.1
2014-Oct-18 02:22N 35°17' E 139°41'0 0.0
2014-Oct-18 00:21N 35°17' E 139°41'0 0.0
2014-Oct-17 22:21N 35°17' E 139°41'0 0.0
2014-Oct-17 21:22N 35°17' E 139°41'0 0.0
2014-Oct-17 20:33N 35°17' E 139°41'0 0.0
2014-Oct-17 19:21N 35°17' E 139°41'0 0.0
2014-Oct-17 18:33N 35°17' E 139°41'0 0.0
2014-Oct-17 17:33N 35°17' E 139°41'0 0.0
2014-Oct-17 16:27N 35°17' E 139°41'0 0.0
2014-Oct-17 15:33N 35°17' E 139°41'0 0.0
2014-Oct-17 14:33N 35°17' E 139°41'0 0.0
2014-Oct-17 13:11N 35°17' E 139°41'0 0.0
2014-Oct-17 12:29N 35°17' E 139°41'0 0.0
2014-Oct-17 11:32N 35°17' E 139°41'0 0.0
2014-Oct-17 08:09N 35°17' E 139°41'0 0.0
2014-Oct-17 05:33N 35°17' E 139°41'0 0.0
2014-Oct-17 04:32N 35°17' E 139°41'0 0.0
2014-Oct-17 03:12N 35°17' E 139°41'0 0.0
2014-Oct-17 02:32N 35°17' E 139°41'0 0.0
2014-Oct-17 01:27N 35°17' E 139°41'9 9.9
2014-Oct-17 00:33N 35°25' E 139°46'1110.2
2014-Oct-16 23:31N 35°14' E 139°47'4 4.0
2014-Oct-16 22:31N 35°17' E 139°44'5 4.9
2014-Oct-16 21:33N 35°22' E 139°45'9 4.4
2014-Oct-16 19:33N 35°13' E 139°43'0 0.0
2014-Oct-16 10:32N 35°13' E 139°43'5 5.4
2014-Oct-16 09:33N 35°19' E 139°44'8 7.6
2014-Oct-16 08:33N 35°26' E 139°46'1 0.6
2014-Oct-16 06:21N 35°25' E 139°48'911.0
2014-Oct-16 05:33N 35°17' E 139°46'2 0.6
2014-Oct-16 02:22N 35°15' E 139°46'911.0
2014-Oct-16 01:33N 35°23' E 139°42'4 4.5
2014-Oct-16 00:33N 35°27' E 139°43'11 1.7
2014-Oct-15 18:12N 35°17' E 139°41'0 0.0
2014-Oct-15 17:20N 35°17' E 139°41'0 0.0
2014-Oct-15 16:33N 35°17' E 139°41'0 0.0
2014-Oct-15 07:32N 35°17' E 139°41'0 0.0
2014-Oct-15 06:33N 35°17' E 139°41'4 0.9
2014-Oct-15 02:33N 35°21' E 139°42'1212.1
2014-Oct-15 01:33N 35°29' E 139°52'9 8.6
2014-Oct-15 00:33N 35°22' E 139°45'6 2.7
2014-Oct-14 22:31N 35°17' E 139°44'1 1.3
2014-Oct-14 21:33N 35°17' E 139°46'5 4.5
2014-Oct-14 20:28N 35°12' E 139°46'7 7.1
2014-Oct-14 19:31N 35°17' E 139°41'0 0.0
2014-Oct-14 18:33N 35°17' E 139°41'0 0.0
2014-Oct-14 17:30N 35°17' E 139°41'0 0.0
2014-Oct-14 16:24N 35°17' E 139°41'0 0.0
2014-Oct-14 15:33N 35°17' E 139°41'0 0.0
2014-Oct-14 13:31N 35°17' E 139°41'0 0.0
2014-Oct-14 12:21N 35°17' E 139°41'0 0.0
2014-Oct-14 11:30N 35°17' E 139°41'0 0.0
2014-Oct-14 10:11N 35°17' E 139°41'0 0.0
2014-Oct-14 09:33N 35°17' E 139°41'0 0.0
2014-Oct-14 08:32N 35°17' E 139°41'0 0.0
2014-Oct-14 06:33N 35°17' E 139°41'0 0.0
2014-Oct-14 05:33N 35°17' E 139°41'0 0.0
2014-Oct-14 04:33N 35°17' E 139°41'0 0.0
2014-Oct-14 03:33N 35°17' E 139°41'0 0.0
2014-Oct-14 02:33N 35°17' E 139°41'0 0.0
2014-Oct-14 01:32N 35°17' E 139°41'0 0.0
2014-Oct-14 00:32N 35°17' E 139°41'0 0.0
2014-Oct-13 23:27N 35°17' E 139°41'0 0.0
2014-Oct-13 22:32N 35°17' E 139°41'0 0.0
2014-Oct-13 21:23N 35°17' E 139°41'0 0.0
2014-Oct-13 20:34N 35°17' E 139°41'0 0.0
2014-Oct-13 19:27N 35°17' E 139°41'0 0.0
2014-Oct-13 18:25N 35°17' E 139°41'0 0.0
2014-Oct-13 17:28N 35°17' E 139°41'0 0.0
2014-Oct-13 16:27N 35°17' E 139°41'0 0.0
2014-Oct-13 15:33N 35°17' E 139°41'0 0.0
2014-Oct-13 14:33N 35°17' E 139°41'0 0.0
2014-Oct-13 13:31N 35°17' E 139°41'0 0.0
2014-Oct-12 20:33N 35°17' E 139°41'0 0.1
2014-Oct-12 18:33N 35°17' E 139°41'2 0.2
2014-Oct-12 08:33N 35°19' E 139°41'1 1.4
2014-Oct-12 07:33N 35°19' E 139°40'0 0.2
2014-Oct-12 06:33N 35°19' E 139°40'1 1.5
2014-Oct-12 05:33N 35°18' E 139°41'6 5.6
2014-Oct-12 04:33N 35°15' E 139°47'1110.6
2014-Oct-12 03:33N 35°24' E 139°40'0 0.4
2014-Oct-12 02:33N 35°24' E 139°40'0 0.0
2014-Oct-12 01:33N 35°24' E 139°40'5 4.8
2014-Oct-12 00:33N 35°22' E 139°45'5 2.7
2014-Oct-11 22:33N 35°18' E 139°42'1 1.5
2014-Oct-11 21:32N 35°17' E 139°41'0 0.0
2014-Oct-11 20:31N 35°17' E 139°41'0 0.0
2014-Oct-11 19:33N 35°17' E 139°41'0 0.0
2014-Oct-11 18:33N 35°17' E 139°41'0 0.0
2014-Oct-11 17:34N 35°17' E 139°41'0 0.0
2014-Oct-11 13:21N 35°17' E 139°41'0 0.0
2014-Oct-11 08:04N 35°17' E 139°41'2 4.4
2014-Oct-11 07:33N 35°19' E 139°41'2 2.2
2014-Oct-11 06:33N 35°17' E 139°41'  
Track history (hours):
 
Tides and Currents Weather Stations Pressure Air Temp Water Temp Dewpoint Dewpoint Depression Visibility Wind Speed Wind Dir Waves Ship Positions

Uraga Maru

Last reported at 2014-Oct-21 06:24 UTC. Time now 2014-Oct-21 15:21 UTC.
Position N 35°17' E 139°41'.

Length 40 m; draft 2.8 m.

Type: Tug. MMSI: 431101119.

Date/timePositionNaut miles runAvg speedWind from/ knotsBaromVisibWave heightAir tempDewpointWater temp
2014-Oct-21 06:24N 35°17' E 139°41'2 0.9
2014-Oct-21 04:33N 35°18' E 139°42'3 2.7
2014-Oct-21 03:30N 35°16' E 139°45'9 9.2
2014-Oct-21 02:33N 35°25' E 139°44'1110.2
2014-Oct-21 01:26N 35°30' E 139°57'1 1.1
2014-Oct-21 00:29N 35°29' E 139°58'9 9.2
2014-Oct-20 23:32N 35°24' E 139°49'10 9.8
2014-Oct-20 22:33N 35°17' E 139°41'0 0.1
2014-Oct-20 21:33N 35°17' E 139°41'0 0.0
2014-Oct-20 20:33N 35°17' E 139°41'0 0.0
2014-Oct-20 19:33N 35°17' E 139°41'0 0.0
2014-Oct-20 18:33N 35°17' E 139°41'0 0.0
2014-Oct-20 17:33N 35°17' E 139°41'0 0.0
2014-Oct-20 16:33N 35°17' E 139°41'0 0.0
2014-Oct-20 15:33N 35°17' E 139°41'0 0.0
2014-Oct-20 14:33N 35°17' E 139°41'0 0.0
2014-Oct-20 13:33N 35°17' E 139°41'0 0.0
2014-Oct-20 12:33N 35°17' E 139°41'0 0.0
2014-Oct-20 11:33N 35°17' E 139°41'0 0.0
2014-Oct-20 10:33N 35°17' E 139°41'0 0.0
2014-Oct-20 09:33N 35°17' E 139°41'0 0.0
2014-Oct-20 08:33N 35°17' E 139°41'0 0.0
2014-Oct-20 07:33N 35°17' E 139°41'3 2.8
2014-Oct-20 06:20N 35°17' E 139°45'911.4
2014-Oct-20 05:33N 35°26' E 139°46'2 0.4
2014-Oct-20 00:22N 35°26' E 139°48'911.1
2014-Oct-19 23:33N 35°17' E 139°45'2 1.4
2014-Oct-19 22:05N 35°15' E 139°45'4 8.1
2014-Oct-19 21:32N 35°17' E 139°41'0 0.0
2014-Oct-19 20:33N 35°17' E 139°41'0 0.0
2014-Oct-19 19:33N 35°17' E 139°41'0 0.0
2014-Oct-19 18:34N 35°17' E 139°41'0 0.0
2014-Oct-19 17:33N 35°17' E 139°41'0 0.0
2014-Oct-19 16:34N 35°17' E 139°41'0 0.0
2014-Oct-19 15:33N 35°17' E 139°41'0 0.0
2014-Oct-19 14:33N 35°17' E 139°41'0 0.0
2014-Oct-19 13:31N 35°17' E 139°41'0 0.0
2014-Oct-19 12:33N 35°17' E 139°41'0 0.0
2014-Oct-19 11:33N 35°17' E 139°41'0 0.0
2014-Oct-19 10:29N 35°17' E 139°41'0 0.0
2014-Oct-19 09:34N 35°17' E 139°41'0 0.0
2014-Oct-19 08:33N 35°17' E 139°41'0 0.0
2014-Oct-19 07:33N 35°17' E 139°41'0 0.0
2014-Oct-19 06:31N 35°17' E 139°41'0 0.0
2014-Oct-19 05:30N 35°17' E 139°41'0 0.0
2014-Oct-19 04:27N 35°17' E 139°41'0 0.0
2014-Oct-19 03:32N 35°17' E 139°41'0 0.0
2014-Oct-19 02:33N 35°17' E 139°41'0 0.0
2014-Oct-19 01:33N 35°17' E 139°41'0 0.0
2014-Oct-19 00:33N 35°17' E 139°41'1 1.0
2014-Oct-18 23:34N 35°18' E 139°42'4 3.1
2014-Oct-18 22:07N 35°13' E 139°43'3 4.5
2014-Oct-18 21:33N 35°12' E 139°46'1212.2
2014-Oct-18 20:34N 35°24' E 139°43'2 1.5
2014-Oct-18 19:31N 35°24' E 139°45'0 0.0
2014-Oct-18 18:33N 35°24' E 139°45'0 0.0
2014-Oct-18 17:33N 35°24' E 139°45'0 0.0
2014-Oct-18 16:33N 35°24' E 139°45'0 0.0
2014-Oct-18 15:33N 35°24' E 139°45'0 0.0
2014-Oct-18 14:26N 35°24' E 139°45'4 4.1
2014-Oct-18 13:33N 35°21' E 139°45'10 9.0
2014-Oct-18 12:29N 35°11' E 139°47'4 4.1
2014-Oct-18 11:33N 35°13' E 139°43'0 0.1
2014-Oct-18 10:04N 35°13' E 139°43'3 4.1
2014-Oct-18 09:22N 35°14' E 139°46'1012.2
2014-Oct-18 08:33N 35°23' E 139°41'1 0.6
2014-Oct-18 07:33N 35°23' E 139°40'8 7.4
2014-Oct-18 06:27N 35°16' E 139°45'3 3.5
2014-Oct-18 05:30N 35°19' E 139°43'5 5.4
2014-Oct-18 04:33N 35°23' E 139°40'6 5.9
2014-Oct-18 03:32N 35°17' E 139°41'0 0.1
2014-Oct-18 02:22N 35°17' E 139°41'0 0.0
2014-Oct-18 00:21N 35°17' E 139°41'0 0.0
2014-Oct-17 22:21N 35°17' E 139°41'0 0.0
2014-Oct-17 21:22N 35°17' E 139°41'0 0.0
2014-Oct-17 20:33N 35°17' E 139°41'0 0.0
2014-Oct-17 19:21N 35°17' E 139°41'0 0.0
2014-Oct-17 18:33N 35°17' E 139°41'0 0.0
2014-Oct-17 17:33N 35°17' E 139°41'0 0.0
2014-Oct-17 16:27N 35°17' E 139°41'0 0.0
2014-Oct-17 15:33N 35°17' E 139°41'0 0.0
2014-Oct-17 14:33N 35°17' E 139°41'0 0.0
2014-Oct-17 13:11N 35°17' E 139°41'0 0.0
2014-Oct-17 12:29N 35°17' E 139°41'0 0.0
2014-Oct-17 11:32N 35°17' E 139°41'0 0.0
2014-Oct-17 08:09N 35°17' E 139°41'0 0.0
2014-Oct-17 05:33N 35°17' E 139°41'0 0.0
2014-Oct-17 04:32N 35°17' E 139°41'0 0.0
2014-Oct-17 03:12N 35°17' E 139°41'0 0.0
2014-Oct-17 02:32N 35°17' E 139°41'0 0.0
2014-Oct-17 01:27N 35°17' E 139°41'9 9.9
2014-Oct-17 00:33N 35°25' E 139°46'1110.2
2014-Oct-16 23:31N 35°14' E 139°47'4 4.0
2014-Oct-16 22:31N 35°17' E 139°44'5 4.9
2014-Oct-16 21:33N 35°22' E 139°45'9 4.4
2014-Oct-16 19:33N 35°13' E 139°43'0 0.0
2014-Oct-16 10:32N 35°13' E 139°43'5 5.4
2014-Oct-16 09:33N 35°19' E 139°44'8 7.6
2014-Oct-16 08:33N 35°26' E 139°46'1 0.6
2014-Oct-16 06:21N 35°25' E 139°48'911.0
2014-Oct-16 05:33N 35°17' E 139°46'2 0.6
2014-Oct-16 02:22N 35°15' E 139°46'911.0
2014-Oct-16 01:33N 35°23' E 139°42'4 4.5
2014-Oct-16 00:33N 35°27' E 139°43'11 1.7
2014-Oct-15 18:12N 35°17' E 139°41'0 0.0
2014-Oct-15 17:20N 35°17' E 139°41'0 0.0
2014-Oct-15 16:33N 35°17' E 139°41'0 0.0
2014-Oct-15 07:32N 35°17' E 139°41'0 0.0
2014-Oct-15 06:33N 35°17' E 139°41'4 0.9
2014-Oct-15 02:33N 35°21' E 139°42'1212.1
2014-Oct-15 01:33N 35°29' E 139°52'9 8.6
2014-Oct-15 00:33N 35°22' E 139°45'6 2.7
2014-Oct-14 22:31N 35°17' E 139°44'1 1.3
2014-Oct-14 21:33N 35°17' E 139°46'5 4.5
2014-Oct-14 20:28N 35°12' E 139°46'7 7.1
2014-Oct-14 19:31N 35°17' E 139°41'0 0.0
2014-Oct-14 18:33N 35°17' E 139°41'0 0.0
2014-Oct-14 17:30N 35°17' E 139°41'0 0.0
2014-Oct-14 16:24N 35°17' E 139°41'0 0.0
2014-Oct-14 15:33N 35°17' E 139°41'0 0.0
2014-Oct-14 13:31N 35°17' E 139°41'0 0.0
2014-Oct-14 12:21N 35°17' E 139°41'0 0.0
2014-Oct-14 11:30N 35°17' E 139°41'0 0.0
2014-Oct-14 10:11N 35°17' E 139°41'0 0.0
2014-Oct-14 09:33N 35°17' E 139°41'0 0.0
2014-Oct-14 08:32N 35°17' E 139°41'0 0.0
2014-Oct-14 06:33N 35°17' E 139°41'0 0.0
2014-Oct-14 05:33N 35°17' E 139°41'0 0.0
2014-Oct-14 04:33N 35°17' E 139°41'0 0.0
2014-Oct-14 03:33N 35°17' E 139°41'0 0.0
2014-Oct-14 02:33N 35°17' E 139°41'0 0.0
2014-Oct-14 01:32N 35°17' E 139°41'0 0.0
2014-Oct-14 00:32N 35°17' E 139°41'0 0.0
2014-Oct-13 23:27N 35°17' E 139°41'0 0.0
2014-Oct-13 22:32N 35°17' E 139°41'0 0.0
2014-Oct-13 21:23N 35°17' E 139°41'0 0.0
2014-Oct-13 20:34N 35°17' E 139°41'0 0.0
2014-Oct-13 19:27N 35°17' E 139°41'0 0.0
2014-Oct-13 18:25N 35°17' E 139°41'0 0.0
2014-Oct-13 17:28N 35°17' E 139°41'0 0.0
2014-Oct-13 16:27N 35°17' E 139°41'0 0.0
2014-Oct-13 15:33N 35°17' E 139°41'0 0.0
2014-Oct-13 14:33N 35°17' E 139°41'0 0.0
2014-Oct-13 13:31N 35°17' E 139°41'0 0.0
2014-Oct-12 20:33N 35°17' E 139°41'0 0.1
2014-Oct-12 18:33N 35°17' E 139°41'2 0.2
2014-Oct-12 08:33N 35°19' E 139°41'1 1.4
2014-Oct-12 07:33N 35°19' E 139°40'0 0.2
2014-Oct-12 06:33N 35°19' E 139°40'1 1.5
2014-Oct-12 05:33N 35°18' E 139°41'6 5.6
2014-Oct-12 04:33N 35°15' E 139°47'1110.6
2014-Oct-12 03:33N 35°24' E 139°40'0 0.4
2014-Oct-12 02:33N 35°24' E 139°40'0 0.0
2014-Oct-12 01:33N 35°24' E 139°40'5 4.8
2014-Oct-12 00:33N 35°22' E 139°45'5 2.7
2014-Oct-11 22:33N 35°18' E 139°42'1 1.5
2014-Oct-11 21:32N 35°17' E 139°41'0 0.0
2014-Oct-11 20:31N 35°17' E 139°41'0 0.0
2014-Oct-11 19:33N 35°17' E 139°41'0 0.0
2014-Oct-11 18:33N 35°17' E 139°41'0 0.0
2014-Oct-11 17:34N 35°17' E 139°41'0 0.0
2014-Oct-11 13:21N 35°17' E 139°41'0 0.0
2014-Oct-11 08:04N 35°17' E 139°41'2 4.4
2014-Oct-11 07:33N 35°19' E 139°41'2 2.2
2014-Oct-11 06:33N 35°17' E 139°41'  

Dump ship's entire track history